Terminal Aerodrome Forecast
Issued by NWS

Home | Current Version | Previous Version | Text Only | Print | Product List | Glossary On
Versions: 1 2 3 4 5 6 7 8 9 10 11 12 13 14 15 16 17 18 19 20
910
FTUS46 KMTR 192342
TAFOAK
TAF
KOAK 192342Z 2000/2106 25008KT P6SM BKN019 OVC025
     FM200300 24012KT 4SM -RA BR BKN025 OVC035
     FM201000 26009KT 6SM -SHRA BR SCT025 BKN040
     FM201600 28007KT P6SM BKN025 BKN040
     FM202100 28013KT P6SM FEW030 SCT050
     FM210300 28009KT P6SM SKC=

USA.gov is the U.S. government's official web portal to all federal, state and local government web resources and services.